Time;durP1;ratioP1;P1;durP2;ratioP2;P2;SDS_P1;SDS_P2;PMS_P1;PMS_P2;Temp;Humidity;BMP_temperature;BMP_pressure;BME280_temperature;BME280_humidity;BME280_pressure;Samples;Min_cycle;Max_cycle;Signal;HPM_P1;HPM_P2
2023/08/05 00:00:22;;;;;;;5.60;4.47;;;15.00;99.90;;;;;;5033629;28;20520;-60
2023/08/05 00:02:49;;;;;;;7.10;4.17;;;15.00;99.90;;;;;;5033119;28;20444;-59
2023/08/05 00:05:18;;;;;;;4.53;4.00;;;15.00;99.90;;;;;;5032937;28;20441;-60
2023/08/05 00:07:44;;;;;;;4.73;4.20;;;14.90;99.90;;;;;;5033057;28;20453;-60
2023/08/05 00:10:11;;;;;;;7.00;4.57;;;14.90;99.90;;;;;;5032978;28;20448;-61
2023/08/05 00:12:38;;;;;;;5.30;4.77;;;14.80;99.90;;;;;;5032917;28;20534;-60
2023/08/05 00:15:06;;;;;;;5.50;4.20;;;14.90;99.90;;;;;;5032860;28;20544;-59
2023/08/05 00:17:33;;;;;;;6.20;4.50;;;14.80;99.90;;;;;;5032411;28;20500;-59
2023/08/05 00:20:00;;;;;;;5.50;4.30;;;14.80;99.90;;;;;;5032571;28;20451;-60
2023/08/05 00:22:28;;;;;;;5.40;4.80;;;14.80;99.90;;;;;;5032852;28;20453;-60
2023/08/05 00:24:55;;;;;;;6.83;5.00;;;14.70;99.90;;;;;;5032587;28;21024;-60
2023/08/05 00:27:21;;;;;;;6.97;4.63;;;14.70;99.90;;;;;;5034245;28;20467;-60
2023/08/05 00:29:48;;;;;;;8.60;6.37;;;14.70;99.90;;;;;;5037365;28;20527;-58
2023/08/05 00:32:15;;;;;;;9.27;7.10;;;14.70;99.90;;;;;;5036905;28;20445;-60
2023/08/05 00:34:42;;;;;;;9.30;7.37;;;14.70;99.90;;;;;;5036743;28;20455;-59
2023/08/05 00:37:08;;;;;;;8.67;6.33;;;14.60;99.90;;;;;;5036573;28;20488;-59
2023/08/05 00:39:37;;;;;;;8.30;6.20;;;14.60;99.90;;;;;;5036866;28;20495;-60
2023/08/05 00:42:04;;;;;;;8.93;6.00;;;14.60;99.90;;;;;;5036716;28;20433;-60
2023/08/05 00:44:30;;;;;;;8.13;6.13;;;14.60;99.90;;;;;;5036345;28;20448;-60
2023/08/05 00:46:58;;;;;;;6.40;5.80;;;14.50;99.90;;;;;;5036481;28;20479;-60
2023/08/05 00:49:25;;;;;;;6.27;5.53;;;14.50;99.90;;;;;;5036469;28;20444;-60
2023/08/05 00:51:53;;;;;;;8.67;6.60;;;14.40;99.90;;;;;;5036726;28;20441;-60
2023/08/05 00:54:20;;;;;;;6.37;5.47;;;14.40;99.90;;;;;;5036536;28;20445;-60
2023/08/05 00:56:49;;;;;;;10.50;6.00;;;14.40;99.90;;;;;;5036664;28;20571;-60
2023/08/05 00:59:18;;;;;;;6.40;4.87;;;14.40;99.90;;;;;;5036113;28;20982;-60
2023/08/05 01:01:45;;;;;;;7.03;5.20;;;14.30;99.90;;;;;;5037461;28;20436;-59
2023/08/05 01:04:11;;;;;;;8.70;5.30;;;14.30;99.90;;;;;;5036281;28;20459;-60
2023/08/05 01:06:39;;;;;;;6.37;4.83;;;14.30;99.90;;;;;;5036223;28;20487;-60
2023/08/05 01:09:06;;;;;;;10.23;5.27;;;14.30;99.90;;;;;;5036193;28;20452;-60
2023/08/05 01:11:33;;;;;;;10.70;6.27;;;14.20;99.90;;;;;;5036593;28;20447;-59
2023/08/05 01:14:02;;;;;;;6.70;5.17;;;14.20;99.90;;;;;;5036448;28;20448;-60
2023/08/05 01:16:28;;;;;;;8.03;5.87;;;14.20;99.90;;;;;;5035907;28;20481;-59
2023/08/05 01:18:58;;;;;;;9.30;6.83;;;14.20;99.90;;;;;;5036312;28;20453;-59
2023/08/05 01:21:37;;;;;;;10.40;7.40;;;14.20;99.90;;;;;;5036497;28;20441;-59
2023/08/05 01:24:14;;;;;;;6.90;6.20;;;14.20;99.90;;;;;;5036028;28;20428;-58
2023/08/05 01:26:43;;;;;;;8.67;6.40;;;14.10;99.90;;;;;;5036721;28;20457;-59
2023/08/05 01:29:10;;;;;;;8.17;7.00;;;14.10;99.90;;;;;;5036124;28;20441;-60
2023/08/05 01:31:37;;;;;;;9.50;6.50;;;14.10;99.90;;;;;;5036337;28;20447;-59
2023/08/05 01:34:05;;;;;;;7.10;6.27;;;14.10;99.90;;;;;;5036944;28;20440;-60
2023/08/05 01:36:32;;;;;;;9.17;6.53;;;14.10;99.90;;;;;;5035870;28;20480;-59
2023/08/05 01:38:59;;;;;;;8.83;6.50;;;14.10;99.90;;;;;;5035232;28;20437;-60
2023/08/05 01:41:26;;;;;;;10.00;6.90;;;14.00;99.90;;;;;;5035897;28;20445;-60
2023/08/05 01:43:54;;;;;;;9.47;7.10;;;14.00;99.90;;;;;;5035531;28;20449;-60
2023/08/05 01:46:21;;;;;;;8.80;6.93;;;14.00;99.90;;;;;;5035946;28;20461;-60
2023/08/05 01:48:47;;;;;;;11.80;6.57;;;13.90;99.90;;;;;;5035798;28;20440;-61
2023/08/05 01:51:14;;;;;;;8.57;6.90;;;13.90;99.90;;;;;;5035738;28;20447;-61
2023/08/05 01:53:41;;;;;;;10.80;7.03;;;13.90;99.90;;;;;;5036101;28;20440;-60
2023/08/05 01:56:08;;;;;;;8.20;6.90;;;13.90;99.90;;;;;;5035634;28;20448;-61
2023/08/05 01:58:34;;;;;;;9.07;6.93;;;13.90;99.90;;;;;;5035362;28;20487;-61
2023/08/05 02:01:03;;;;;;;9.73;7.33;;;13.90;99.90;;;;;;5035830;28;20452;-60
2023/08/05 02:03:29;;;;;;;9.43;7.07;;;13.90;99.90;;;;;;5035892;28;20437;-60
2023/08/05 02:05:56;;;;;;;9.87;6.33;;;13.90;99.90;;;;;;5035663;28;20445;-59
2023/08/05 02:08:23;;;;;;;10.40;6.87;;;13.90;99.90;;;;;;5035331;28;20467;-59
2023/08/05 02:10:50;;;;;;;11.03;6.93;;;13.90;99.90;;;;;;5035557;28;20532;-60
2023/08/05 02:13:17;;;;;;;9.97;6.37;;;13.80;99.90;;;;;;5035286;28;20449;-60
2023/08/05 02:15:43;;;;;;;11.40;7.00;;;13.80;99.90;;;;;;5035686;28;20448;-59
2023/08/05 02:18:11;;;;;;;9.87;7.53;;;13.80;99.90;;;;;;5035554;28;20484;-58
2023/08/05 02:20:38;;;;;;;11.80;7.30;;;13.80;99.90;;;;;;5035583;28;20449;-59
2023/08/05 02:23:05;;;;;;;8.57;6.00;;;13.80;99.90;;;;;;5036023;28;20540;-60
2023/08/05 02:25:32;;;;;;;9.53;6.50;;;13.80;99.90;;;;;;5035751;28;20947;-59
2023/08/05 02:27:59;;;;;;;8.73;6.67;;;13.80;99.90;;;;;;5036407;28;20461;-60
2023/08/05 02:30:25;;;;;;;9.60;6.90;;;13.80;99.90;;;;;;5035406;28;20789;-61
2023/08/05 02:32:52;;;;;;;7.37;6.13;;;13.80;99.90;;;;;;5035502;28;20452;-60
2023/08/05 02:35:20;;;;;;;8.80;6.33;;;13.80;99.90;;;;;;5035691;28;20445;-60
2023/08/05 02:37:47;;;;;;;7.60;5.97;;;13.80;99.90;;;;;;5034389;28;20487;-60
2023/08/05 02:40:14;;;;;;;8.07;7.13;;;13.70;99.90;;;;;;5034756;28;20469;-59
2023/08/05 02:42:41;;;;;;;9.10;6.83;;;13.80;99.90;;;;;;5034813;28;20484;-58
2023/08/05 02:45:08;;;;;;;10.20;6.77;;;13.80;99.90;;;;;;5035034;28;20441;-60
2023/08/05 02:47:35;;;;;;;8.43;6.87;;;13.90;99.90;;;;;;5034582;28;20467;-60
2023/08/05 02:50:02;;;;;;;7.67;6.50;;;13.90;99.90;;;;;;5034893;28;20445;-59
2023/08/05 02:52:30;;;;;;;7.97;6.63;;;14.00;99.90;;;;;;5034300;28;20935;-60
2023/08/05 02:54:57;;;;;;;10.00;7.83;;;14.00;99.90;;;;;;5034417;28;20532;-59
2023/08/05 02:57:23;;;;;;;9.70;6.50;;;14.10;99.90;;;;;;5035014;28;20477;-60
2023/08/05 02:59:50;;;;;;;12.03;7.57;;;14.10;99.90;;;;;;5034286;28;20449;-60
2023/08/05 03:02:17;;;;;;;10.83;6.67;;;14.10;99.90;;;;;;5034117;28;20445;-60
2023/08/05 03:04:44;;;;;;;8.50;6.20;;;14.10;99.90;;;;;;5033827;28;20887;-60
2023/08/05 03:07:11;;;;;;;11.30;6.77;;;14.10;99.90;;;;;;5034081;28;20560;-59
2023/08/05 03:09:39;;;;;;;8.80;6.93;;;14.10;99.90;;;;;;5033909;28;20965;-59
2023/08/05 03:12:09;;;;;;;7.67;6.10;;;14.10;99.90;;;;;;5034415;28;20491;-59
2023/08/05 03:14:36;;;;;;;8.30;7.50;;;14.10;99.90;;;;;;5034316;28;20429;-60
2023/08/05 03:17:03;;;;;;;10.30;7.00;;;14.10;99.90;;;;;;5033426;28;21013;-60
2023/08/05 03:19:29;;;;;;;9.33;7.00;;;14.10;99.90;;;;;;5033413;28;20957;-60
2023/08/05 03:21:56;;;;;;;11.00;7.90;;;14.10;99.90;;;;;;5033761;28;20441;-58
2023/08/05 03:24:23;;;;;;;9.00;7.23;;;14.10;99.90;;;;;;5033678;28;20441;-59
2023/08/05 03:26:51;;;;;;;10.43;8.03;;;14.10;99.90;;;;;;5033659;28;20461;-59
2023/08/05 03:29:18;;;;;;;7.43;6.37;;;14.10;99.90;;;;;;5033625;28;20443;-60
2023/08/05 03:31:44;;;;;;;9.57;7.67;;;14.10;99.90;;;;;;5033419;28;20455;-60
2023/08/05 03:34:11;;;;;;;11.93;7.23;;;14.10;99.90;;;;;;5033226;28;20456;-59
2023/08/05 03:36:38;;;;;;;8.37;6.40;;;14.10;99.90;;;;;;5033490;28;20491;-60
2023/08/05 03:39:05;;;;;;;9.30;7.23;;;14.10;99.90;;;;;;5036253;28;20493;-60
2023/08/05 03:41:33;;;;;;;8.77;6.77;;;14.10;99.90;;;;;;5036937;28;20817;-59
2023/08/05 03:44:01;;;;;;;9.50;7.83;;;14.10;99.90;;;;;;5040278;28;20441;-59
2023/08/05 03:46:28;;;;;;;8.43;6.47;;;14.10;99.90;;;;;;5038842;28;20489;-58
2023/08/05 03:48:55;;;;;;;13.40;6.97;;;14.20;99.90;;;;;;5038090;28;20536;-60
2023/08/05 03:51:22;;;;;;;7.57;6.60;;;14.20;99.90;;;;;;5036349;28;20503;-59
2023/08/05 03:53:49;;;;;;;9.73;6.67;;;14.30;99.90;;;;;;5034029;28;20472;-59
2023/08/05 03:56:19;;;;;;;8.87;7.00;;;14.30;99.90;;;;;;5034163;28;20521;-59
2023/08/05 03:58:46;;;;;;;10.93;6.87;;;14.30;99.90;;;;;;5034135;28;20476;-59
2023/08/05 04:01:17;;;;;;;12.50;6.70;;;14.40;99.90;;;;;;5033185;28;20453;-59
2023/08/05 04:03:43;;;;;;;9.00;6.77;;;14.40;99.90;;;;;;5033458;28;20456;-60
2023/08/05 04:06:11;;;;;;;8.20;6.27;;;14.40;99.90;;;;;;5033398;28;20817;-59
2023/08/05 04:12:05;;;;;;;9.80;6.03;;;14.50;99.90;;;;;;5091333;27;20549;-59
2023/08/05 04:14:32;;;;;;;9.30;6.23;;;14.50;99.90;;;;;;5090329;28;20788;-59
2023/08/05 04:16:57;;;;;;;9.27;7.40;;;14.50;99.90;;;;;;5117615;22;20585;-66
2023/08/05 04:19:25;;;;;;;7.33;6.30;;;14.50;99.90;;;;;;5070651;28;20879;-67
2023/08/05 04:21:52;;;;;;;8.20;6.87;;;14.50;99.90;;;;;;5070663;28;20284;-66
2023/08/05 04:24:22;;;;;;;7.83;6.50;;;14.50;99.90;;;;;;5070267;28;20439;-67
2023/08/05 04:26:50;;;;;;;7.87;6.47;;;14.50;99.90;;;;;;5070424;28;20809;-67
2023/08/05 04:29:22;;;;;;;7.80;6.40;;;14.50;99.90;;;;;;5070284;28;20477;-67
2023/08/05 04:31:49;;;;;;;7.57;6.80;;;14.60;99.90;;;;;;5070422;28;20478;-67
2023/08/05 04:34:16;;;;;;;8.20;7.00;;;14.60;99.90;;;;;;5070164;28;20444;-67
2023/08/05 04:36:50;;;;;;;9.30;7.07;;;14.60;99.90;;;;;;5071894;28;20467;-67
2023/08/05 04:39:18;;;;;;;8.07;6.67;;;14.60;99.90;;;;;;5070190;28;20794;-66
2023/08/05 04:41:45;;;;;;;10.37;7.83;;;14.70;99.90;;;;;;5070083;28;20440;-67
2023/08/05 04:44:12;;;;;;;8.50;7.50;;;14.70;99.90;;;;;;5069797;28;20440;-67
2023/08/05 04:46:40;;;;;;;9.20;7.13;;;14.70;99.90;;;;;;5069737;28;20462;-67
2023/08/05 04:49:09;;;;;;;9.07;6.37;;;14.80;99.90;;;;;;5069669;28;20450;-67
2023/08/05 04:51:36;;;;;;;7.93;7.13;;;14.80;99.90;;;;;;5069873;28;20487;-66
2023/08/05 04:54:03;;;;;;;8.93;6.60;;;14.90;99.90;;;;;;5069911;28;20448;-67
2023/08/05 04:56:29;;;;;;;8.00;5.37;;;15.00;99.90;;;;;;5069638;28;20431;-67
2023/08/05 04:58:56;;;;;;;9.10;7.60;;;15.00;99.90;;;;;;5070049;28;20449;-69
2023/08/05 05:01:23;;;;;;;8.70;6.23;;;15.10;99.90;;;;;;5070667;28;20444;-66
2023/08/05 05:03:52;;;;;;;8.90;6.03;;;15.10;99.90;;;;;;5069737;28;20450;-66
2023/08/05 05:06:19;;;;;;;9.70;6.40;;;15.20;99.90;;;;;;5069494;28;20794;-67
2023/08/05 05:08:45;;;;;;;8.83;6.10;;;15.30;99.90;;;;;;5069282;28;20486;-66
2023/08/05 05:11:12;;;;;;;9.17;5.40;;;15.30;99.90;;;;;;5069225;28;20992;-66
2023/08/05 05:13:39;;;;;;;7.87;7.07;;;15.30;99.90;;;;;;5069463;28;20446;-67
2023/08/05 05:16:06;;;;;;;7.20;5.60;;;15.30;99.90;;;;;;5069797;28;20530;-67
2023/08/05 05:18:33;;;;;;;8.83;5.80;;;15.40;99.90;;;;;;5069017;28;20560;-66
2023/08/05 05:21:01;;;;;;;6.70;6.00;;;15.40;99.90;;;;;;5070186;28;20447;-66
2023/08/05 05:23:28;;;;;;;7.53;6.30;;;15.40;99.90;;;;;;5056006;28;20444;-66
2023/08/05 05:25:55;;;;;;;8.17;5.47;;;15.40;99.90;;;;;;5056142;28;20480;-66
2023/08/05 05:28:22;;;;;;;7.30;6.60;;;15.40;99.90;;;;;;5055973;28;20542;-66
2023/08/05 05:30:49;;;;;;;8.97;5.73;;;15.40;99.90;;;;;;5055389;28;20480;-66
2023/08/05 05:33:16;;;;;;;9.40;6.13;;;15.50;99.90;;;;;;5056106;28;20440;-66
2023/08/05 05:35:43;;;;;;;8.00;5.50;;;15.50;99.90;;;;;;5055946;28;20440;-66
2023/08/05 05:38:11;;;;;;;7.03;6.33;;;15.60;99.90;;;;;;5055476;28;20466;-66
2023/08/05 05:40:40;;;;;;;7.20;5.80;;;15.70;99.90;;;;;;5055142;28;20946;-66
2023/08/05 05:43:07;;;;;;;7.13;5.87;;;15.80;99.90;;;;;;5055290;28;20448;-66
2023/08/05 05:45:35;;;;;;;6.30;5.03;;;15.90;99.90;;;;;;5055109;28;20439;-65
2023/08/05 05:48:02;;;;;;;7.80;5.77;;;16.00;99.90;;;;;;5054906;28;20464;-66
2023/08/05 05:50:29;;;;;;;7.30;5.60;;;16.10;99.90;;;;;;5055717;28;20506;-65
2023/08/05 05:52:56;;;;;;;6.17;5.57;;;16.20;99.90;;;;;;5055450;28;20825;-65
2023/08/05 05:55:24;;;;;;;6.90;4.80;;;16.30;99.90;;;;;;5055799;28;20440;-66
2023/08/05 05:57:51;;;;;;;6.07;5.47;;;16.40;99.90;;;;;;5055577;28;20468;-65
2023/08/05 06:00:18;;;;;;;7.03;5.50;;;16.50;99.90;;;;;;5055704;28;20444;-65
2023/08/05 06:02:45;;;;;;;8.03;5.90;;;16.50;99.90;;;;;;5055548;28;20440;-66
2023/08/05 06:05:12;;;;;;;8.57;5.30;;;16.60;99.90;;;;;;5055025;28;20821;-67
2023/08/05 06:07:38;;;;;;;6.80;5.80;;;16.70;99.90;;;;;;5055049;28;20462;-65
2023/08/05 06:10:06;;;;;;;5.97;5.40;;;16.80;99.90;;;;;;5055205;28;20448;-67
2023/08/05 06:12:37;;;;;;;9.63;4.97;;;16.80;99.90;;;;;;5055034;28;20494;-67
2023/08/05 06:15:06;;;;;;;10.53;6.00;;;16.90;99.90;;;;;;5055089;28;20432;-67
2023/08/05 06:17:33;;;;;;;6.00;5.30;;;16.90;99.90;;;;;;5054804;28;20476;-66
2023/08/05 06:20:00;;;;;;;8.80;4.87;;;17.00;99.90;;;;;;5055257;28;20440;-67
2023/08/05 06:22:26;;;;;;;6.23;5.30;;;17.20;99.90;;;;;;5055467;28;20439;-67
2023/08/05 06:24:53;;;;;;;7.53;5.50;;;17.30;99.90;;;;;;5054924;28;20440;-66
2023/08/05 06:27:20;;;;;;;5.27;4.50;;;17.30;99.90;;;;;;5055708;28;20456;-66
2023/08/05 06:29:48;;;;;;;5.73;4.70;;;17.30;99.90;;;;;;5054154;28;20444;-65
2023/08/05 06:32:15;;;;;;;10.43;5.30;;;17.30;99.90;;;;;;5054515;28;20491;-65
2023/08/05 06:34:42;;;;;;;7.70;4.73;;;17.40;99.90;;;;;;5053368;28;20532;-66
2023/08/05 06:37:08;;;;;;;5.37;4.60;;;17.50;99.90;;;;;;5054364;28;20803;-66
2023/08/05 06:39:35;;;;;;;4.40;4.00;;;17.70;99.90;;;;;;5054338;28;20451;-67
2023/08/05 06:42:02;;;;;;;6.60;4.70;;;17.80;99.90;;;;;;5054370;28;20442;-65
2023/08/05 06:44:29;;;;;;;6.50;4.20;;;18.00;99.90;;;;;;5054460;28;20444;-67
2023/08/05 06:46:57;;;;;;;4.53;4.13;;;18.20;99.90;;;;;;5054237;28;20547;-67
2023/08/05 06:49:24;;;;;;;6.70;4.10;;;18.40;99.90;;;;;;5054143;28;20552;-67
2023/08/05 06:51:51;;;;;;;5.47;3.93;;;18.50;99.90;;;;;;5053667;28;20479;-67
2023/08/05 06:54:18;;;;;;;4.50;3.93;;;18.60;99.90;;;;;;5054176;28;20794;-68
2023/08/05 06:56:45;;;;;;;5.73;3.50;;;18.70;99.90;;;;;;5053729;28;20490;-68
2023/08/05 06:59:12;;;;;;;6.07;3.97;;;18.60;99.90;;;;;;5054179;28;20440;-68
2023/08/05 07:01:40;;;;;;;5.20;3.60;;;18.60;99.90;;;;;;5054000;28;20611;-67
2023/08/05 07:04:08;;;;;;;3.77;3.37;;;18.60;99.90;;;;;;5054925;28;20452;-66
2023/08/05 07:06:35;;;;;;;3.60;3.27;;;18.70;99.90;;;;;;5054043;28;20456;-67
2023/08/05 07:09:03;;;;;;;4.20;3.37;;;18.90;99.90;;;;;;5054396;28;20792;-67
2023/08/05 07:11:30;;;;;;;5.73;3.53;;;19.20;99.90;;;;;;5054251;28;20483;-67
2023/08/05 07:13:57;;;;;;;10.33;3.30;;;19.40;99.90;;;;;;5054241;28;20445;-66
2023/08/05 07:16:24;;;;;;;6.27;3.80;;;19.70;99.90;;;;;;5054515;28;20492;-66
2023/08/05 07:18:51;;;;;;;5.93;3.60;;;19.70;99.90;;;;;;5053975;28;20426;-66
2023/08/05 07:21:19;;;;;;;7.90;3.90;;;19.80;99.90;;;;;;5053949;28;20443;-65
2023/08/05 07:23:46;;;;;;;6.90;3.53;;;19.90;99.90;;;;;;5053370;28;20447;-66
2023/08/05 07:26:13;;;;;;;5.50;2.80;;;20.10;99.90;;;;;;5052818;28;21014;-66
2023/08/05 07:28:39;;;;;;;3.80;2.37;;;20.30;99.90;;;;;;5053127;28;20471;-66
2023/08/05 07:31:10;;;;;;;4.60;2.50;;;20.40;99.90;;;;;;5053526;28;20486;-65
2023/08/05 07:33:37;;;;;;;5.00;3.07;;;20.50;99.90;;;;;;5053638;28;20441;-66
2023/08/05 07:36:10;;;;;;;8.00;3.20;;;20.50;99.90;;;;;;5053358;28;20528;-67
2023/08/05 07:38:40;;;;;;;4.37;2.27;;;20.60;99.90;;;;;;5053061;28;20475;-67
2023/08/05 07:41:07;;;;;;;3.47;2.90;;;20.70;99.90;;;;;;5052870;28;20969;-65
2023/08/05 07:43:35;;;;;;;4.87;2.30;;;20.70;99.90;;;;;;5053175;28;20501;-67
2023/08/05 07:46:02;;;;;;;4.63;2.70;;;20.80;99.20;;;;;;5052732;28;20447;-67
2023/08/05 07:48:34;;;;;;;4.20;2.20;;;21.00;98.40;;;;;;5053263;28;20547;-66
2023/08/05 07:51:01;;;;;;;4.13;2.77;;;21.00;96.50;;;;;;5052936;28;20883;-67
2023/08/05 07:53:29;;;;;;;3.80;2.33;;;21.00;95.80;;;;;;5052789;28;20450;-65
2023/08/05 07:55:58;;;;;;;3.50;2.50;;;20.90;95.20;;;;;;5052707;28;20516;-66
2023/08/05 07:58:25;;;;;;;4.13;2.20;;;20.80;95.20;;;;;;5052936;28;20474;-67
2023/08/05 08:00:56;;;;;;;5.77;2.40;;;20.60;94.80;;;;;;5052629;28;20451;-65
2023/08/05 08:03:27;;;;;;;4.03;2.50;;;20.40;94.90;;;;;;5053636;28;20431;-66
2023/08/05 08:05:54;;;;;;;3.27;2.10;;;20.40;94.90;;;;;;5053217;28;20436;-66
2023/08/05 08:08:21;;;;;;;3.50;2.20;;;20.30;94.50;;;;;;5052769;28;20464;-65
2023/08/05 08:10:48;;;;;;;5.20;2.57;;;20.40;94.10;;;;;;5053957;28;20450;-66
2023/08/05 08:13:16;;;;;;;4.73;2.40;;;20.50;93.30;;;;;;5052852;28;20481;-67
2023/08/05 08:15:43;;;;;;;5.03;2.37;;;20.80;92.60;;;;;;5053060;28;20971;-67
2023/08/05 08:18:10;;;;;;;6.63;2.40;;;21.00;91.20;;;;;;5052813;28;20471;-66
2023/08/05 08:20:37;;;;;;;5.60;2.10;;;21.20;90.50;;;;;;5053153;28;20447;-67
2023/08/05 08:23:04;;;;;;;5.80;2.50;;;21.30;90.00;;;;;;5053287;28;20544;-66
2023/08/05 08:25:31;;;;;;;5.40;2.37;;;21.40;88.40;;;;;;5053407;28;20809;-66
2023/08/05 08:27:57;;;;;;;6.57;2.30;;;21.40;87.20;;;;;;5053370;28;20464;-67
2023/08/05 08:30:26;;;;;;;6.13;2.63;;;21.50;86.90;;;;;;5053601;28;20454;-67
2023/08/05 08:32:52;;;;;;;2.47;2.03;;;21.40;85.70;;;;;;5053689;28;20481;-68
2023/08/05 08:35:19;;;;;;;3.53;2.10;;;21.20;86.20;;;;;;5053586;28;20440;-67
2023/08/05 08:37:46;;;;;;;6.30;2.63;;;21.20;86.60;;;;;;5053357;28;21041;-65
2023/08/05 08:40:13;;;;;;;3.93;2.43;;;21.30;86.30;;;;;;5052718;28;20936;-69
2023/08/05 08:42:42;;;;;;;4.23;2.50;;;21.60;85.70;;;;;;5053237;28;20557;-67
2023/08/05 08:45:10;;;;;;;6.43;3.03;;;21.70;83.40;;;;;;5052917;28;20444;-67
2023/08/05 08:47:39;;;;;;;4.60;2.30;;;21.70;82.40;;;;;;5053296;28;20497;-68
2023/08/05 08:50:07;;;;;;;3.03;2.40;;;21.70;82.10;;;;;;5053241;28;20449;-67
2023/08/05 08:52:36;;;;;;;5.23;2.57;;;21.70;81.70;;;;;;5053828;28;20488;-67
2023/08/05 08:55:04;;;;;;;2.80;2.37;;;21.70;81.10;;;;;;5054239;28;20479;-67
2023/08/05 08:57:31;;;;;;;2.67;2.10;;;21.70;79.80;;;;;;5055067;28;20470;-67
2023/08/05 08:59:58;;;;;;;2.97;2.10;;;21.60;79.40;;;;;;5057254;28;20475;-66
2023/08/05 09:02:26;;;;;;;2.37;2.17;;;21.50;79.30;;;;;;5056950;28;20520;-67
2023/08/05 09:04:55;;;;;;;5.90;2.30;;;21.40;79.20;;;;;;5056626;28;20504;-67
2023/08/05 09:07:26;;;;;;;3.13;1.93;;;21.30;79.50;;;;;;5056468;28;20553;-67
2023/08/05 09:09:54;;;;;;;3.13;2.17;;;21.40;79.30;;;;;;5056257;28;20428;-66
2023/08/05 09:12:21;;;;;;;3.10;2.00;;;21.50;77.50;;;;;;5055894;28;20492;-66
2023/08/05 09:14:53;;;;;;;3.80;2.10;;;21.40;76.00;;;;;;5056074;28;20550;-66
2023/08/05 09:17:20;;;;;;;5.63;2.03;;;21.20;75.90;;;;;;5056072;28;20475;-66
2023/08/05 09:19:47;;;;;;;2.80;2.20;;;21.10;76.30;;;;;;5056481;28;20439;-66
2023/08/05 09:22:15;;;;;;;2.30;2.10;;;21.10;76.20;;;;;;5055896;28;20818;-66
2023/08/05 09:24:42;;;;;;;4.40;2.73;;;21.00;76.30;;;;;;5056077;28;20453;-67
2023/08/05 09:27:09;;;;;;;3.93;2.90;;;20.90;76.00;;;;;;5056161;28;20485;-68
2023/08/05 09:29:36;;;;;;;5.40;2.27;;;20.80;76.50;;;;;;5056343;28;20632;-67
2023/08/05 09:32:04;;;;;;;4.33;2.20;;;20.80;77.50;;;;;;5056461;28;20478;-66
2023/08/05 09:34:35;;;;;;;3.80;2.20;;;20.70;76.90;;;;;;5056080;28;20438;-67
2023/08/05 09:37:03;;;;;;;2.37;1.93;;;20.70;77.00;;;;;;5056859;28;20530;-67
2023/08/05 09:39:45;;;;;;;2.50;2.30;;;20.60;77.00;;;;;;5056435;28;20473;-69
2023/08/05 09:42:24;;;;;;;2.33;2.00;;;20.60;77.20;;;;;;5055679;28;20561;-68
2023/08/05 09:44:54;;;;;;;2.50;2.23;;;20.60;77.80;;;;;;5055606;28;20440;-66
2023/08/05 09:47:23;;;;;;;4.03;2.43;;;20.70;77.30;;;;;;5055360;28;20467;-66
2023/08/05 09:49:51;;;;;;;3.60;1.70;;;20.90;77.40;;;;;;5055680;28;20450;-67
2023/08/05 09:52:20;;;;;;;4.33;2.13;;;21.10;76.70;;;;;;5056116;28;20541;-66
2023/08/05 09:55:03;;;;;;;3.57;2.57;;;21.40;75.70;;;;;;5057244;28;20569;-68
2023/08/05 09:57:31;;;;;;;2.40;2.10;;;21.60;74.20;;;;;;5056812;28;20537;-67
2023/08/05 09:59:59;;;;;;;2.47;1.90;;;21.50;73.60;;;;;;5056092;28;20822;-67
2023/08/05 10:02:26;;;;;;;2.27;1.90;;;21.60;73.90;;;;;;5055679;28;20443;-67
2023/08/05 10:04:54;;;;;;;2.57;2.17;;;21.70;72.10;;;;;;5056112;28;20440;-66
2023/08/05 10:07:22;;;;;;;2.20;2.00;;;21.80;71.00;;;;;;5055994;28;20921;-67
2023/08/05 10:09:52;;;;;;;3.63;2.10;;;21.90;69.90;;;;;;5056422;28;20455;-68
2023/08/05 10:12:22;;;;;;;3.97;2.43;;;22.20;69.10;;;;;;5059024;28;20510;-67
2023/08/05 10:14:49;;;;;;;1.80;1.60;;;22.40;68.40;;;;;;5056045;28;20460;-68
2023/08/05 10:17:17;;;;;;;2.10;1.90;;;22.60;66.60;;;;;;5078764;22;21602;-62
2023/08/05 10:19:47;;;;;;;2.30;1.77;;;22.80;65.40;;;;;;5056552;28;20456;-62
2023/08/05 10:22:14;;;;;;;3.90;1.40;;;22.90;63.60;;;;;;5055850;28;20436;-61
2023/08/05 10:24:52;;;;;;;2.23;1.40;;;22.90;62.10;;;;;;5056248;28;20476;-61
2023/08/05 10:27:34;;;;;;;2.33;1.60;;;22.90;61.00;;;;;;5056320;28;20539;-61
2023/08/05 10:30:06;;;;;;;2.63;1.97;;;22.80;60.20;;;;;;5056481;28;20424;-63
2023/08/05 10:32:35;;;;;;;4.27;1.80;;;22.90;59.80;;;;;;5055582;28;20523;-61
2023/08/05 10:35:28;;;;;;;2.80;1.80;;;23.00;59.70;;;;;;5056596;28;20446;-62
2023/08/05 10:38:15;;;;;;;2.40;1.50;;;23.10;59.40;;;;;;5055569;28;20543;-61
2023/08/05 10:40:51;;;;;;;2.30;1.70;;;23.30;58.90;;;;;;5055363;28;20509;-62
2023/08/05 10:43:30;;;;;;;3.67;1.90;;;23.50;58.10;;;;;;5055648;28;20500;-62
2023/08/05 10:45:57;;;;;;;3.47;2.27;;;23.50;57.50;;;;;;5055735;28;20426;-63
2023/08/05 10:48:29;;;;;;;2.23;1.70;;;23.60;57.40;;;;;;5055850;28;20466;-63
2023/08/05 10:50:57;;;;;;;4.80;1.90;;;23.80;57.30;;;;;;5055131;28;20450;-62
2023/08/05 10:53:24;;;;;;;1.80;1.70;;;24.10;57.00;;;;;;5055101;28;20486;-62
2023/08/05 10:55:56;;;;;;;2.23;1.77;;;24.40;56.50;;;;;;5054205;28;20995;-62
2023/08/05 10:58:24;;;;;;;2.63;1.97;;;24.70;56.10;;;;;;5054236;28;20961;-61
2023/08/05 11:00:58;;;;;;;2.07;1.90;;;24.90;55.50;;;;;;5054400;28;20450;-61
2023/08/05 11:03:35;;;;;;;2.70;1.83;;;24.90;55.00;;;;;;5054506;28;20929;-61
2023/08/05 11:06:03;;;;;;;2.17;1.73;;;25.00;55.00;;;;;;5055378;28;20497;-62
2023/08/05 11:08:32;;;;;;;2.80;1.70;;;24.90;54.70;;;;;;5054978;28;20464;-62
2023/08/05 11:11:03;;;;;;;3.80;2.10;;;24.70;54.80;;;;;;5056369;28;20440;-63
2023/08/05 11:13:34;;;;;;;2.40;2.00;;;24.70;54.90;;;;;;5059784;28;20471;-63
2023/08/05 11:16:06;;;;;;;4.17;2.10;;;24.70;55.10;;;;;;5057013;28;20442;-62
2023/08/05 11:18:33;;;;;;;13.67;12.27;;;24.70;55.20;;;;;;5055556;28;20482;-62
2023/08/05 11:21:01;;;;;;;7.23;5.50;;;24.60;55.30;;;;;;5055342;28;20445;-63
2023/08/05 11:23:29;;;;;;;4.40;3.73;;;24.60;55.20;;;;;;5055233;28;20451;-63
2023/08/05 11:25:58;;;;;;;5.90;5.30;;;24.70;54.90;;;;;;5054823;28;20456;-63
2023/08/05 11:28:27;;;;;;;4.00;2.70;;;25.00;54.50;;;;;;5054854;28;20518;-63
2023/08/05 11:30:54;;;;;;;3.07;2.20;;;25.30;54.00;;;;;;5055098;28;20442;-62
2023/08/05 11:33:21;;;;;;;1.53;1.43;;;25.40;53.60;;;;;;5055933;28;20485;-62
2023/08/05 11:35:51;;;;;;;3.63;2.03;;;25.10;53.80;;;;;;5056595;28;20441;-61
2023/08/05 11:38:19;;;;;;;4.33;1.90;;;24.90;53.90;;;;;;5055804;28;20491;-63
2023/08/05 11:40:48;;;;;;;2.30;2.10;;;24.60;54.10;;;;;;5058399;28;20457;-62
2023/08/05 11:43:15;;;;;;;2.20;1.90;;;24.60;54.10;;;;;;5056432;28;20451;-63
2023/08/05 11:45:44;;;;;;;3.83;2.00;;;24.70;53.90;;;;;;5055324;28;20444;-63
2023/08/05 11:48:18;;;;;;;2.17;1.97;;;24.80;53.60;;;;;;5057145;28;20461;-62
2023/08/05 11:50:45;;;;;;;3.03;1.67;;;24.80;53.30;;;;;;5056957;28;20447;-62
2023/08/05 11:53:13;;;;;;;2.83;1.93;;;25.00;53.20;;;;;;5055369;28;20544;-64
2023/08/05 11:55:42;;;;;;;4.07;2.00;;;25.10;52.80;;;;;;5054604;28;20536;-61
2023/08/05 11:58:10;;;;;;;2.00;1.73;;;25.40;52.20;;;;;;5054677;28;20530;-60
2023/08/05 12:00:37;;;;;;;2.33;2.03;;;25.50;51.60;;;;;;5054910;28;20443;-63
2023/08/05 12:03:06;;;;;;;2.80;2.10;;;25.40;51.60;;;;;;5054955;28;20440;-63
2023/08/05 12:05:33;;;;;;;2.17;1.97;;;25.10;52.20;;;;;;5054424;28;20794;-62
2023/08/05 12:08:00;;;;;;;2.60;1.80;;;25.20;52.40;;;;;;5054382;28;20469;-62
2023/08/05 12:10:27;;;;;;;2.40;2.20;;;25.80;51.60;;;;;;5053774;28;20437;-62
2023/08/05 12:12:55;;;;;;;2.20;1.70;;;26.20;50.50;;;;;;5054268;28;20482;-63
2023/08/05 12:15:26;;;;;;;2.00;1.67;;;26.60;50.10;;;;;;5054605;28;20528;-62
2023/08/05 12:17:54;;;;;;;2.50;1.90;;;27.60;48.50;;;;;;5054017;28;20568;-62
2023/08/05 12:20:24;;;;;;;2.50;1.60;;;28.60;46.50;;;;;;5054929;28;20459;-62
2023/08/05 12:22:53;;;;;;;2.70;2.20;;;29.40;45.20;;;;;;5054757;28;20418;-63
2023/08/05 12:25:20;;;;;;;2.43;1.83;;;30.10;44.00;;;;;;5054859;28;20967;-62
2023/08/05 12:27:47;;;;;;;1.87;1.67;;;30.60;42.90;;;;;;5054330;28;20464;-63
2023/08/05 12:30:14;;;;;;;2.67;2.00;;;30.70;42.10;;;;;;5054068;28;20440;-64
2023/08/05 12:32:42;;;;;;;2.20;2.00;;;30.20;42.20;;;;;;5056554;28;20933;-61
2023/08/05 12:35:10;;;;;;;2.57;1.70;;;29.40;43.00;;;;;;5058171;28;20446;-62
2023/08/05 12:37:39;;;;;;;2.87;1.87;;;28.60;44.20;;;;;;5057770;28;20467;-63
2023/08/05 12:40:08;;;;;;;2.10;1.57;;;27.80;45.30;;;;;;5057495;28;20445;-63
2023/08/05 12:42:35;;;;;;;2.83;2.10;;;27.40;46.20;;;;;;5057888;28;20437;-63
2023/08/05 12:45:04;;;;;;;1.90;1.70;;;26.80;46.70;;;;;;5058323;28;20517;-63
2023/08/05 12:47:31;;;;;;;2.57;1.97;;;26.60;47.30;;;;;;5058889;28;20457;-63
2023/08/05 12:49:58;;;;;;;3.27;2.20;;;26.50;47.30;;;;;;5057388;28;20471;-63
2023/08/05 12:52:25;;;;;;;2.77;2.07;;;26.50;47.60;;;;;;5057220;28;20442;-62